createdAt,value
2022-08-30T00:02:25.369Z,24.20
2022-08-30T00:05:01.431Z,24.10
2022-08-30T00:07:33.329Z,24.20
2022-08-30T00:10:06.991Z,24.30
2022-08-30T00:12:39.150Z,24.30
2022-08-30T00:15:13.783Z,24.20
2022-08-30T00:17:45.885Z,24.20
2022-08-30T00:20:24.123Z,24.10
2022-08-30T00:22:56.185Z,24.30
2022-08-30T00:25:28.202Z,24.40
2022-08-30T00:28:00.352Z,24.40
2022-08-30T00:30:32.245Z,24.30
2022-08-30T00:33:04.905Z,24.30
2022-08-30T00:35:38.640Z,24.30
2022-08-30T00:38:12.557Z,24.30
2022-08-30T00:40:45.631Z,24.20
2022-08-30T00:43:21.049Z,24.20
2022-08-30T00:45:57.316Z,24.10
2022-08-30T00:48:30.486Z,24.10
2022-08-30T00:51:07.443Z,24.10
2022-08-30T00:53:42.398Z,24.10
2022-08-30T00:56:14.985Z,24.10
2022-08-30T00:58:50.564Z,24.20
2022-08-30T01:01:23.366Z,24.20
2022-08-30T01:03:55.706Z,24.30
2022-08-30T01:06:32.611Z,24.20
2022-08-30T01:09:05.973Z,24.20
2022-08-30T01:11:39.132Z,24.30
2022-08-30T01:14:11.737Z,24.20
2022-08-30T01:16:45.016Z,24.10
2022-08-30T01:19:40.784Z,24.10
2022-08-30T01:22:37.314Z,24.10
2022-08-30T01:25:10.478Z,24.10
2022-08-30T01:27:50.628Z,24.00
2022-08-30T01:30:24.072Z,23.90
2022-08-30T01:33:02.323Z,24.00
2022-08-30T01:35:44.161Z,24.00
2022-08-30T01:38:18.359Z,24.00
2022-08-30T01:40:50.827Z,23.90
2022-08-30T01:43:22.781Z,23.90
2022-08-30T01:45:54.809Z,23.90
2022-08-30T01:48:30.940Z,23.90
2022-08-30T01:51:03.284Z,24.00
2022-08-30T01:53:35.195Z,24.00
2022-08-30T01:56:08.111Z,24.10
2022-08-30T01:58:40.731Z,24.20
2022-08-30T02:01:15.043Z,24.20
2022-08-30T02:03:48.470Z,24.30
2022-08-30T02:06:21.371Z,24.30
2022-08-30T02:08:53.414Z,24.20
2022-08-30T02:11:25.525Z,24.10
2022-08-30T02:13:57.453Z,24.00
2022-08-30T02:16:30.146Z,24.00
2022-08-30T02:19:02.099Z,24.00
2022-08-30T02:21:34.638Z,23.90
2022-08-30T02:24:06.921Z,23.90
2022-08-30T02:26:38.853Z,23.90
2022-08-30T02:29:10.935Z,24.00
2022-08-30T02:31:42.814Z,24.10
2022-08-30T02:34:17.354Z,24.10
2022-08-30T02:36:49.201Z,24.10
2022-08-30T02:39:21.491Z,24.00
2022-08-30T02:41:53.432Z,23.90
2022-08-30T02:44:25.452Z,23.80
2022-08-30T02:46:57.325Z,23.80
2022-08-30T02:49:33.616Z,23.70
2022-08-30T02:52:06.427Z,23.70
2022-08-30T02:54:38.365Z,23.70
2022-08-30T02:57:20.266Z,23.70
2022-08-30T02:59:55.472Z,23.70
2022-08-30T03:02:27.990Z,23.50
2022-08-30T03:04:59.992Z,23.40
2022-08-30T03:07:31.993Z,23.50
2022-08-30T03:10:04.117Z,23.70
2022-08-30T03:12:36.374Z,23.70
2022-08-30T03:15:10.032Z,23.70
2022-08-30T03:17:42.189Z,23.80
2022-08-30T03:20:14.147Z,23.80
2022-08-30T03:22:46.109Z,23.90
2022-08-30T03:25:18.412Z,24.00
2022-08-30T03:27:50.865Z,23.80
2022-08-30T03:30:22.810Z,23.70
2022-08-30T03:32:54.845Z,23.40
2022-08-30T03:35:27.287Z,23.30
2022-08-30T03:38:05.804Z,23.20
2022-08-30T03:40:37.721Z,23.10
2022-08-30T03:43:10.067Z,23.10
2022-08-30T03:45:42.196Z,23.10
2022-08-30T03:48:14.213Z,23.10
2022-08-30T03:50:46.090Z,23.20
2022-08-30T03:53:18.318Z,23.20
2022-08-30T03:55:50.319Z,23.10
2022-08-30T03:58:24.898Z,23.00
2022-08-30T04:00:56.873Z,23.00
2022-08-30T04:03:29.335Z,23.00
2022-08-30T04:06:01.787Z,23.10
2022-08-30T04:08:33.718Z,23.00
2022-08-30T04:11:07.286Z,23.10
2022-08-30T04:13:39.126Z,23.20
2022-08-30T04:16:11.244Z,23.10
2022-08-30T04:18:43.203Z,23.20
2022-08-30T04:21:15.779Z,23.10
2022-08-30T04:23:47.724Z,23.00
2022-08-30T04:26:19.744Z,23.00
2022-08-30T04:28:51.599Z,23.00
2022-08-30T04:31:23.802Z,22.90
2022-08-30T04:33:56.387Z,22.70
2022-08-30T04:36:28.306Z,22.60
2022-08-30T04:39:00.216Z,22.40
2022-08-30T04:41:32.251Z,22.40
2022-08-30T04:44:04.205Z,22.30
2022-08-30T04:46:37.033Z,22.30
2022-08-30T04:49:16.591Z,22.30
2022-08-30T04:51:48.756Z,22.20
2022-08-30T04:54:20.688Z,22.20
2022-08-30T04:56:52.579Z,22.30
2022-08-30T04:59:24.500Z,22.30
2022-08-30T05:01:56.426Z,22.30
2022-08-30T05:04:28.437Z,22.30
2022-08-30T05:07:00.439Z,22.30
2022-08-30T05:09:32.363Z,22.20
2022-08-30T05:12:04.328Z,22.20
2022-08-30T05:14:36.195Z,22.20
2022-08-30T05:17:08.404Z,22.30
2022-08-30T05:19:40.327Z,22.20
2022-08-30T05:22:12.352Z,22.20
2022-08-30T05:24:44.295Z,22.20
2022-08-30T05:27:16.216Z,22.10
2022-08-30T05:29:48.407Z,22.00
2022-08-30T05:32:20.339Z,22.00
2022-08-30T05:34:52.806Z,21.90
2022-08-30T05:37:24.684Z,22.00
2022-08-30T05:39:57.508Z,21.90
2022-08-30T05:42:29.442Z,21.80
2022-08-30T05:45:01.941Z,21.80
2022-08-30T05:47:33.832Z,21.80
2022-08-30T05:50:09.463Z,21.70
2022-08-30T05:52:43.964Z,21.60
2022-08-30T05:55:16.091Z,21.60
2022-08-30T05:57:47.945Z,21.70
2022-08-30T06:00:20.001Z,21.70
2022-08-30T06:02:54.531Z,21.80
2022-08-30T06:05:26.636Z,21.80
2022-08-30T06:07:58.522Z,21.80
2022-08-30T06:10:31.004Z,21.80
2022-08-30T06:13:02.938Z,21.80
2022-08-30T06:15:34.864Z,21.80
2022-08-30T06:18:07.167Z,21.70
2022-08-30T06:20:44.402Z,21.80
2022-08-30T06:23:17.676Z,21.90
2022-08-30T06:25:49.612Z,22.10
2022-08-30T06:28:21.510Z,22.40
2022-08-30T06:30:53.892Z,22.80
2022-08-30T06:33:26.099Z,23.30
2022-08-30T06:36:06.261Z,23.30
2022-08-30T06:38:39.229Z,23.40
2022-08-30T06:41:14.424Z,23.50
2022-08-30T06:43:49.110Z,23.80
2022-08-30T06:46:33.534Z,24.20
2022-08-30T06:49:07.596Z,24.40
2022-08-30T06:51:40.228Z,24.80
2022-08-30T06:54:14.127Z,25.20
2022-08-30T06:56:58.218Z,25.70
2022-08-30T06:59:32.409Z,26.10
2022-08-30T07:02:04.771Z,26.40
2022-08-30T07:04:36.881Z,26.70
2022-08-30T07:07:11.927Z,26.80
2022-08-30T07:09:44.532Z,27.00
2022-08-30T07:12:17.133Z,27.20
2022-08-30T07:14:49.468Z,27.40
2022-08-30T07:17:40.005Z,27.30
2022-08-30T07:20:11.970Z,27.60
2022-08-30T07:22:43.874Z,28.10
2022-08-30T07:25:16.863Z,28.50
2022-08-30T07:27:52.190Z,28.60
2022-08-30T07:30:24.390Z,28.70
2022-08-30T07:32:56.289Z,28.80
2022-08-30T07:35:28.465Z,28.80
2022-08-30T07:38:00.715Z,29.10
2022-08-30T07:40:32.670Z,29.40
2022-08-30T07:43:04.669Z,29.40
2022-08-30T07:45:37.925Z,29.10
2022-08-30T07:48:11.644Z,29.00
2022-08-30T07:50:45.371Z,29.00
2022-08-30T07:53:17.419Z,29.10
2022-08-30T07:55:49.493Z,29.20
2022-08-30T07:58:21.450Z,29.40
2022-08-30T08:00:53.488Z,29.70
2022-08-30T08:03:29.856Z,30.20
2022-08-30T08:06:04.367Z,30.30
2022-08-30T08:08:38.904Z,30.20
2022-08-30T08:11:17.916Z,30.20
2022-08-30T08:13:54.074Z,30.10
2022-08-30T08:16:28.242Z,30.00
2022-08-30T08:19:00.578Z,30.20
2022-08-30T08:21:32.435Z,30.20
2022-08-30T08:24:05.051Z,29.90
2022-08-30T08:26:38.883Z,29.70
2022-08-30T08:29:16.084Z,29.70
2022-08-30T08:31:48.938Z,29.40
2022-08-30T08:34:23.637Z,28.90
2022-08-30T08:36:55.583Z,28.50
2022-08-30T08:39:27.562Z,28.10
2022-08-30T08:42:08.049Z,27.90
2022-08-30T08:44:46.915Z,28.00
2022-08-30T08:47:32.535Z,28.00
2022-08-30T08:50:17.390Z,27.90
2022-08-30T08:53:24.955Z,27.80
2022-08-30T08:56:12.214Z,27.60
2022-08-30T08:58:53.203Z,27.50
2022-08-30T09:01:29.079Z,27.50
2022-08-30T09:04:14.459Z,27.60
2022-08-30T09:07:03.943Z,27.80
2022-08-30T09:09:40.270Z,27.90
2022-08-30T09:12:13.373Z,28.00
2022-08-30T09:14:51.308Z,27.90
2022-08-30T09:17:27.517Z,28.10
2022-08-30T09:20:00.946Z,28.90
2022-08-30T09:22:38.975Z,29.40
2022-08-30T09:25:14.161Z,29.70
2022-08-30T09:27:47.863Z,29.80
2022-08-30T09:30:38.561Z,29.90
2022-08-30T09:33:20.866Z,30.40
2022-08-30T09:35:54.167Z,30.30
2022-08-30T09:38:35.955Z,30.20
2022-08-30T09:41:34.380Z,30.40
2022-08-30T09:44:16.084Z,30.30
2022-08-30T09:47:00.386Z,30.30
2022-08-30T09:49:34.027Z,30.30
2022-08-30T09:52:33.636Z,30.30
2022-08-30T09:55:17.250Z,30.30
2022-08-30T09:58:08.193Z,30.10
2022-08-30T10:00:54.189Z,29.80
2022-08-30T10:03:41.398Z,29.60
2022-08-30T10:06:53.381Z,29.70
2022-08-30T10:09:54.937Z,29.80
2022-08-30T10:12:47.257Z,30.00
2022-08-30T10:15:32.624Z,29.50
2022-08-30T10:18:07.243Z,29.70
2022-08-30T10:21:07.009Z,29.80
2022-08-30T10:24:02.868Z,29.50
2022-08-30T10:27:28.511Z,29.50
2022-08-30T10:30:10.479Z,29.70
2022-08-30T10:33:06.775Z,29.20
2022-08-30T10:35:53.029Z,29.30
2022-08-30T10:38:35.338Z,29.40
2022-08-30T10:41:36.710Z,29.60
2022-08-30T10:44:39.304Z,29.60
2022-08-30T10:47:31.929Z,30.00
2022-08-30T10:50:24.405Z,30.20
2022-08-30T10:53:02.170Z,30.50
2022-08-30T10:55:49.866Z,30.60
2022-08-30T10:58:22.401Z,30.70
2022-08-30T11:01:15.331Z,30.70
2022-08-30T11:04:18.690Z,30.60
2022-08-30T11:07:05.852Z,30.50
2022-08-30T11:09:56.825Z,30.60
2022-08-30T11:12:29.091Z,30.50
2022-08-30T11:15:38.596Z,30.50
2022-08-30T11:18:13.982Z,30.40
2022-08-30T11:20:50.419Z,30.10
2022-08-30T11:23:32.893Z,29.80
2022-08-30T11:26:13.989Z,29.60
2022-08-30T11:28:59.698Z,29.80
2022-08-30T11:31:41.883Z,30.00
2022-08-30T11:34:48.877Z,29.80
2022-08-30T11:37:40.170Z,29.80
2022-08-30T11:40:22.672Z,29.70
2022-08-30T11:42:55.906Z,29.80
2022-08-30T11:45:28.343Z,30.10
2022-08-30T11:48:05.604Z,30.10
2022-08-30T11:50:57.861Z,30.40
2022-08-30T11:53:52.935Z,30.40
2022-08-30T11:56:44.680Z,30.60
2022-08-30T11:59:45.208Z,30.50
2022-08-30T12:03:08.696Z,30.20
2022-08-30T12:06:02.481Z,30.10
2022-08-30T12:08:34.413Z,29.80
2022-08-30T12:11:26.589Z,29.60
2022-08-30T12:13:59.127Z,29.60
2022-08-30T12:17:03.264Z,29.70
2022-08-30T12:19:35.145Z,29.80
2022-08-30T12:22:07.670Z,30.10
2022-08-30T12:24:44.008Z,30.40
2022-08-30T12:27:27.551Z,30.70
2022-08-30T12:30:08.502Z,30.80
2022-08-30T12:32:50.725Z,30.50
2022-08-30T12:35:28.349Z,30.70
2022-08-30T12:38:11.883Z,31.10
2022-08-30T12:41:00.207Z,31.30
2022-08-30T12:43:38.951Z,31.20
2022-08-30T12:46:17.647Z,31.00
2022-08-30T12:48:50.367Z,30.60
2022-08-30T12:51:41.449Z,30.40
2022-08-30T12:54:20.941Z,30.30
2022-08-30T12:56:56.459Z,30.30
2022-08-30T12:59:47.370Z,30.40
2022-08-30T13:02:52.077Z,30.20
2022-08-30T13:05:42.983Z,30.10
2022-08-30T13:08:25.845Z,29.90
2022-08-30T13:11:24.885Z,30.00
2022-08-30T13:14:43.603Z,30.40
2022-08-30T13:17:27.732Z,30.80
2022-08-30T13:20:05.829Z,31.00
2022-08-30T13:22:42.408Z,31.20
2022-08-30T13:25:14.500Z,31.10
2022-08-30T13:27:46.982Z,31.10
2022-08-30T13:30:20.025Z,30.80
2022-08-30T13:32:54.949Z,30.60
2022-08-30T13:35:28.937Z,30.70
2022-08-30T13:38:02.470Z,30.70
2022-08-30T13:40:34.432Z,30.80
2022-08-30T13:43:06.484Z,30.80
2022-08-30T13:45:42.023Z,30.80
2022-08-30T13:48:17.391Z,30.80
2022-08-30T13:50:57.083Z,30.60
2022-08-30T13:56:21.488Z,30.60
2022-08-30T13:58:53.424Z,30.70
2022-08-30T14:01:25.545Z,30.60
2022-08-30T14:04:13.555Z,30.60
2022-08-30T14:09:39.424Z,31.00
2022-08-30T14:12:11.450Z,31.20
2022-08-30T14:14:45.090Z,31.30
2022-08-30T14:17:17.589Z,31.40
2022-08-30T14:19:50.158Z,31.40
2022-08-30T14:22:22.136Z,31.50
2022-08-30T14:24:54.388Z,31.60
2022-08-30T14:27:28.470Z,31.60
2022-08-30T14:30:01.379Z,31.70
2022-08-30T14:32:33.430Z,31.80
2022-08-30T14:35:05.981Z,31.70
2022-08-30T14:37:37.901Z,31.70
2022-08-30T14:40:11.897Z,31.60
2022-08-30T14:42:44.694Z,31.60
2022-08-30T14:45:16.734Z,31.40
2022-08-30T14:47:49.172Z,31.30
2022-08-30T14:50:21.094Z,30.90
2022-08-30T14:52:53.045Z,30.70
2022-08-30T14:55:28.645Z,30.70
2022-08-30T14:58:01.628Z,30.80
2022-08-30T15:00:33.887Z,30.90
2022-08-30T15:03:08.866Z,31.00
2022-08-30T15:05:41.038Z,31.00
2022-08-30T15:08:13.019Z,31.00
2022-08-30T15:10:45.422Z,30.90
2022-08-30T15:13:17.578Z,30.90
2022-08-30T15:15:49.499Z,30.80
2022-08-30T15:18:24.303Z,30.70
2022-08-30T15:20:56.393Z,30.70
2022-08-30T15:23:28.535Z,30.60
2022-08-30T15:26:00.634Z,30.50
2022-08-30T15:28:32.619Z,30.50
2022-08-30T15:31:08.538Z,30.50
2022-08-30T15:33:41.049Z,30.40
2022-08-30T15:36:16.466Z,30.40
2022-08-30T15:38:48.417Z,30.50
2022-08-30T15:41:20.330Z,30.40
2022-08-30T15:43:52.930Z,30.30
2022-08-30T15:46:30.793Z,30.10
2022-08-30T15:49:06.561Z,30.00
2022-08-30T15:51:41.238Z,30.10
2022-08-30T15:54:16.436Z,30.00
2022-08-30T15:56:48.502Z,30.00
2022-08-30T15:59:20.396Z,30.00
2022-08-30T16:01:52.325Z,30.10
2022-08-30T16:04:24.293Z,30.00
2022-08-30T16:06:57.707Z,29.90
2022-08-30T16:09:30.111Z,29.90
2022-08-30T16:12:06.863Z,29.90
2022-08-30T16:14:38.881Z,29.90
2022-08-30T16:17:11.167Z,29.90
2022-08-30T16:19:43.119Z,29.80
2022-08-30T16:22:15.853Z,29.70
2022-08-30T16:24:54.243Z,29.60
2022-08-30T16:27:26.551Z,29.50
2022-08-30T16:29:58.515Z,29.50
2022-08-30T16:32:30.395Z,29.30
2022-08-30T16:35:02.488Z,29.40
2022-08-30T16:37:34.608Z,29.30
2022-08-30T16:40:11.168Z,29.30
2022-08-30T16:42:43.189Z,29.20
2022-08-30T16:45:15.031Z,29.20
2022-08-30T16:47:46.971Z,29.20
2022-08-30T16:50:21.456Z,29.30
2022-08-30T16:52:53.411Z,29.20
2022-08-30T16:55:25.353Z,29.00
2022-08-30T16:57:57.985Z,29.00
2022-08-30T17:00:30.340Z,28.90
2022-08-30T17:03:02.565Z,28.90
2022-08-30T17:05:36.698Z,28.80
2022-08-30T17:08:09.219Z,28.80
2022-08-30T17:10:43.797Z,28.70
2022-08-30T17:13:19.763Z,28.50
2022-08-30T17:15:52.186Z,28.50
2022-08-30T17:18:24.357Z,28.60
2022-08-30T17:20:56.626Z,28.40
2022-08-30T17:23:28.664Z,28.30
2022-08-30T17:26:01.358Z,28.20
2022-08-30T17:28:34.617Z,28.10
2022-08-30T17:31:06.902Z,28.10
2022-08-30T17:33:40.555Z,28.10
2022-08-30T17:36:12.553Z,27.90
2022-08-30T17:38:45.263Z,27.70
2022-08-30T17:41:17.845Z,27.40
2022-08-30T17:43:49.726Z,27.10
2022-08-30T17:46:21.667Z,26.70
2022-08-30T17:49:01.117Z,26.40
2022-08-30T17:51:33.376Z,26.00
2022-08-30T17:54:05.363Z,25.70
2022-08-30T17:56:37.986Z,25.50
2022-08-30T17:59:14.886Z,25.50
2022-08-30T18:01:47.022Z,25.60
2022-08-30T18:04:24.702Z,25.80
2022-08-30T18:06:57.556Z,26.00
2022-08-30T18:09:33.887Z,26.10
2022-08-30T18:12:06.224Z,25.90
2022-08-30T18:14:39.444Z,25.50
2022-08-30T18:17:11.528Z,25.30
2022-08-30T18:19:46.228Z,25.30
2022-08-30T18:22:18.783Z,25.10
2022-08-30T18:24:51.627Z,24.90
2022-08-30T18:27:23.709Z,24.90
2022-08-30T18:29:55.925Z,24.90
2022-08-30T18:32:32.887Z,24.80
2022-08-30T18:35:08.832Z,25.00
2022-08-30T18:37:41.279Z,25.20
2022-08-30T18:40:18.703Z,25.40
2022-08-30T18:42:50.995Z,25.50
2022-08-30T18:45:23.877Z,25.60
2022-08-30T18:47:55.723Z,25.70
2022-08-30T18:50:28.513Z,25.70
2022-08-30T18:53:01.210Z,25.60
2022-08-30T18:55:33.774Z,25.30
2022-08-30T18:58:06.061Z,25.20
2022-08-30T19:00:39.169Z,25.20
2022-08-30T19:03:11.861Z,25.00
2022-08-30T19:05:43.797Z,24.90
2022-08-30T19:08:15.665Z,24.90
2022-08-30T19:10:49.823Z,24.80
2022-08-30T19:13:21.786Z,24.80
2022-08-30T19:15:57.980Z,24.90
2022-08-30T19:18:29.928Z,25.10
2022-08-30T19:21:02.007Z,25.00
2022-08-30T19:23:36.366Z,25.10
2022-08-30T19:26:08.692Z,25.20
2022-08-30T19:28:42.929Z,25.30
2022-08-30T19:31:14.975Z,25.40
2022-08-30T19:33:47.446Z,25.30
2022-08-30T19:36:19.336Z,25.40
2022-08-30T19:38:51.475Z,25.40
2022-08-30T19:41:24.264Z,25.40
2022-08-30T19:43:57.342Z,25.30
2022-08-30T19:46:33.367Z,25.20
2022-08-30T19:49:07.185Z,25.00
2022-08-30T19:51:39.676Z,24.90
2022-08-30T19:54:18.865Z,24.80
2022-08-30T19:56:51.145Z,24.70
2022-08-30T19:59:23.247Z,24.70
2022-08-30T20:01:55.742Z,24.70
2022-08-30T20:04:28.024Z,24.80
2022-08-30T20:07:00.627Z,24.90
2022-08-30T20:09:33.374Z,25.00
2022-08-30T20:12:05.801Z,25.00
2022-08-30T20:14:37.731Z,25.00
2022-08-30T20:17:11.678Z,25.00
2022-08-30T20:19:46.041Z,25.10
2022-08-30T20:22:18.004Z,25.20
2022-08-30T20:24:50.355Z,25.10
2022-08-30T20:27:24.213Z,25.00
2022-08-30T20:29:56.270Z,24.80
2022-08-30T20:32:28.284Z,24.60
2022-08-30T20:35:00.326Z,24.40
2022-08-30T20:37:33.269Z,24.40
2022-08-30T20:40:05.867Z,24.50
2022-08-30T20:42:41.701Z,24.60
2022-08-30T20:45:16.092Z,24.70
2022-08-30T20:47:48.970Z,24.80
2022-08-30T20:50:21.337Z,24.90
2022-08-30T20:52:53.694Z,24.90
2022-08-30T20:55:25.715Z,24.90
2022-08-30T20:57:57.953Z,24.90
2022-08-30T21:00:29.827Z,24.70
2022-08-30T21:03:03.383Z,24.70
2022-08-30T21:05:40.215Z,24.70
2022-08-30T21:08:12.148Z,24.70
2022-08-30T21:10:44.392Z,24.70
2022-08-30T21:13:16.335Z,24.70
2022-08-30T21:15:52.776Z,24.70
2022-08-30T21:18:29.621Z,24.70
2022-08-30T21:21:32.756Z,24.60
2022-08-30T21:24:10.262Z,24.40
2022-08-30T21:26:42.951Z,24.40
2022-08-30T21:29:15.195Z,24.40
2022-08-30T21:31:47.419Z,24.50
2022-08-30T21:34:19.474Z,24.50
2022-08-30T21:36:51.619Z,24.60
2022-08-30T21:39:26.460Z,24.40
2022-08-30T21:41:59.500Z,24.30
2022-08-30T21:44:31.404Z,24.30
2022-08-30T21:47:03.587Z,24.30
2022-08-30T21:49:36.477Z,24.30
2022-08-30T21:52:08.412Z,24.30
2022-08-30T21:54:40.366Z,24.30
2022-08-30T21:57:12.322Z,24.30
2022-08-30T21:59:45.576Z,24.30
2022-08-30T22:02:17.482Z,24.30
2022-08-30T22:04:49.367Z,24.40
2022-08-30T22:07:21.253Z,24.40
2022-08-30T22:09:53.133Z,24.40
2022-08-30T22:12:25.929Z,24.40
2022-08-30T22:14:57.892Z,24.40
2022-08-30T22:17:30.307Z,24.40
2022-08-30T22:20:02.407Z,24.40
2022-08-30T22:22:34.323Z,24.30
2022-08-30T22:25:06.667Z,24.30
2022-08-30T22:27:38.579Z,24.30
2022-08-30T22:30:10.847Z,24.30
2022-08-30T22:32:42.714Z,24.30
2022-08-30T22:35:15.219Z,24.20
2022-08-30T22:37:53.304Z,24.20
2022-08-30T22:40:25.659Z,24.10
2022-08-30T22:43:01.667Z,24.00
2022-08-30T22:45:33.640Z,24.00
2022-08-30T22:48:05.878Z,24.00
2022-08-30T22:50:38.838Z,24.00
2022-08-30T22:53:10.800Z,24.10
2022-08-30T22:55:42.774Z,24.10
2022-08-30T22:58:14.645Z,24.10
2022-08-30T23:00:55.091Z,24.20
2022-08-30T23:03:27.477Z,24.10
2022-08-30T23:05:59.396Z,24.10
2022-08-30T23:08:32.215Z,24.00
2022-08-30T23:11:04.218Z,23.90
2022-08-30T23:13:36.236Z,23.80
2022-08-30T23:16:08.704Z,23.80
2022-08-30T23:18:42.125Z,23.80
2022-08-30T23:21:20.455Z,23.80
2022-08-30T23:24:12.343Z,23.80
2022-08-30T23:27:03.505Z,23.70
2022-08-30T23:29:54.473Z,23.60
2022-08-30T23:32:44.809Z,23.70
2022-08-30T23:35:35.417Z,23.80
2022-08-30T23:38:25.646Z,23.90
2022-08-30T23:41:16.115Z,23.90
2022-08-30T23:44:06.397Z,24.00
2022-08-30T23:46:56.719Z,24.00
2022-08-30T23:49:47.038Z,24.00
2022-08-30T23:52:37.343Z,24.00
2022-08-30T23:55:27.614Z,23.90
2022-08-30T23:58:17.974Z,23.90
